sensor_id;sensor_type;location;lat;lon;timestamp;P1;durP1;ratioP1;P2;durP2;ratioP2
46288;SDS011;63105;46.158;14.604;2023-02-11T00:00:04;57.63;;;29.33;;
46288;SDS011;63105;46.158;14.604;2023-02-11T00:02:30;57.92;;;30.65;;
46288;SDS011;63105;46.158;14.604;2023-02-11T00:04:56;60.33;;;29.73;;
46288;SDS011;63105;46.158;14.604;2023-02-11T00:07:21;56.58;;;28.90;;
46288;SDS011;63105;46.158;14.604;2023-02-11T00:09:46;56.60;;;28.90;;
46288;SDS011;63105;46.158;14.604;2023-02-11T00:12:11;52.30;;;28.20;;
46288;SDS011;63105;46.158;14.604;2023-02-11T00:14:36;48.95;;;26.33;;
46288;SDS011;63105;46.158;14.604;2023-02-11T00:17:02;49.05;;;25.95;;
46288;SDS011;63105;46.158;14.604;2023-02-11T00:19:27;47.78;;;25.98;;
46288;SDS011;63105;46.158;14.604;2023-02-11T00:21:52;47.80;;;25.70;;
46288;SDS011;63105;46.158;14.604;2023-02-11T00:24:17;46.40;;;24.73;;
46288;SDS011;63105;46.158;14.604;2023-02-11T00:26:43;43.83;;;25.70;;
46288;SDS011;63105;46.158;14.604;2023-02-11T00:29:08;42.58;;;24.40;;
46288;SDS011;63105;46.158;14.604;2023-02-11T00:31:34;44.20;;;24.10;;
46288;SDS011;63105;46.158;14.604;2023-02-11T00:34:00;45.55;;;24.63;;
46288;SDS011;63105;46.158;14.604;2023-02-11T00:36:26;38.40;;;23.15;;
46288;SDS011;63105;46.158;14.604;2023-02-11T00:38:52;51.60;;;26.95;;
46288;SDS011;63105;46.158;14.604;2023-02-11T00:41:17;46.50;;;24.92;;
46288;SDS011;63105;46.158;14.604;2023-02-11T00:43:43;45.28;;;23.92;;
46288;SDS011;63105;46.158;14.604;2023-02-11T00:46:08;48.47;;;24.98;;
46288;SDS011;63105;46.158;14.604;2023-02-11T00:48:33;46.92;;;24.70;;
46288;SDS011;63105;46.158;14.604;2023-02-11T00:50:59;47.78;;;25.70;;
46288;SDS011;63105;46.158;14.604;2023-02-11T00:53:24;42.47;;;24.25;;
46288;SDS011;63105;46.158;14.604;2023-02-11T00:55:49;45.55;;;24.45;;
46288;SDS011;63105;46.158;14.604;2023-02-11T00:58:15;43.30;;;23.40;;
46288;SDS011;63105;46.158;14.604;2023-02-11T01:00:40;43.95;;;23.35;;
46288;SDS011;63105;46.158;14.604;2023-02-11T01:03:05;44.03;;;24.33;;
46288;SDS011;63105;46.158;14.604;2023-02-11T01:05:30;43.53;;;23.98;;
46288;SDS011;63105;46.158;14.604;2023-02-11T01:07:56;43.00;;;24.50;;
46288;SDS011;63105;46.158;14.604;2023-02-11T01:10:21;40.65;;;22.90;;
46288;SDS011;63105;46.158;14.604;2023-02-11T01:12:46;39.30;;;22.10;;
46288;SDS011;63105;46.158;14.604;2023-02-11T01:15:15;40.50;;;22.27;;
46288;SDS011;63105;46.158;14.604;2023-02-11T01:17:41;41.28;;;23.10;;
46288;SDS011;63105;46.158;14.604;2023-02-11T01:20:07;39.63;;;22.25;;
46288;SDS011;63105;46.158;14.604;2023-02-11T01:22:33;46.42;;;22.30;;
46288;SDS011;63105;46.158;14.604;2023-02-11T01:25:01;41.00;;;22.40;;
46288;SDS011;63105;46.158;14.604;2023-02-11T01:27:26;38.75;;;22.33;;
46288;SDS011;63105;46.158;14.604;2023-02-11T01:29:51;37.63;;;21.73;;
46288;SDS011;63105;46.158;14.604;2023-02-11T01:32:17;41.67;;;22.85;;
46288;SDS011;63105;46.158;14.604;2023-02-11T01:34:42;41.30;;;22.88;;
46288;SDS011;63105;46.158;14.604;2023-02-11T01:37:07;39.83;;;22.50;;
46288;SDS011;63105;46.158;14.604;2023-02-11T01:39:33;43.28;;;22.80;;
46288;SDS011;63105;46.158;14.604;2023-02-11T01:41:58;43.05;;;24.80;;
46288;SDS011;63105;46.158;14.604;2023-02-11T01:44:31;42.50;;;23.58;;
46288;SDS011;63105;46.158;14.604;2023-02-11T01:46:57;43.80;;;23.70;;
46288;SDS011;63105;46.158;14.604;2023-02-11T01:49:24;40.28;;;22.98;;
46288;SDS011;63105;46.158;14.604;2023-02-11T01:51:52;45.40;;;24.75;;
46288;SDS011;63105;46.158;14.604;2023-02-11T01:54:20;43.47;;;23.38;;
46288;SDS011;63105;46.158;14.604;2023-02-11T01:57:04;44.63;;;23.92;;
46288;SDS011;63105;46.158;14.604;2023-02-11T02:02:29;44.72;;;25.08;;
46288;SDS011;63105;46.158;14.604;2023-02-11T02:05:17;43.80;;;24.00;;
46288;SDS011;63105;46.158;14.604;2023-02-11T02:10:13;43.33;;;24.08;;
46288;SDS011;63105;46.158;14.604;2023-02-11T02:12:39;46.65;;;24.30;;
46288;SDS011;63105;46.158;14.604;2023-02-11T02:15:16;44.72;;;23.88;;
46288;SDS011;63105;46.158;14.604;2023-02-11T02:17:45;44.42;;;24.75;;
46288;SDS011;63105;46.158;14.604;2023-02-11T02:20:23;50.85;;;26.98;;
46288;SDS011;63105;46.158;14.604;2023-02-11T02:31:10;48.78;;;26.38;;
46288;SDS011;63105;46.158;14.604;2023-02-11T02:36:16;50.35;;;27.58;;
46288;SDS011;63105;46.158;14.604;2023-02-11T02:39:25;49.72;;;26.73;;
46288;SDS011;63105;46.158;14.604;2023-02-11T02:41:32;51.22;;;26.98;;
46288;SDS011;63105;46.158;14.604;2023-02-11T02:43:57;47.58;;;27.17;;
46288;SDS011;63105;46.158;14.604;2023-02-11T02:48:51;47.08;;;26.42;;
46288;SDS011;63105;46.158;14.604;2023-02-11T02:51:29;45.08;;;25.60;;
46288;SDS011;63105;46.158;14.604;2023-02-11T02:54:00;49.83;;;26.55;;
46288;SDS011;63105;46.158;14.604;2023-02-11T02:59:08;49.60;;;25.67;;
46288;SDS011;63105;46.158;14.604;2023-02-11T03:01:40;49.33;;;26.20;;
46288;SDS011;63105;46.158;14.604;2023-02-11T03:09:05;51.17;;;27.40;;
46288;SDS011;63105;46.158;14.604;2023-02-11T03:11:31;50.03;;;27.33;;
46288;SDS011;63105;46.158;14.604;2023-02-11T03:13:56;52.65;;;27.52;;
46288;SDS011;63105;46.158;14.604;2023-02-11T03:16:25;53.05;;;28.58;;
46288;SDS011;63105;46.158;14.604;2023-02-11T03:21:49;51.90;;;29.38;;
46288;SDS011;63105;46.158;14.604;2023-02-11T03:24:19;49.42;;;26.80;;
46288;SDS011;63105;46.158;14.604;2023-02-11T03:26:52;54.10;;;27.33;;
46288;SDS011;63105;46.158;14.604;2023-02-11T03:29:22;52.05;;;26.98;;
46288;SDS011;63105;46.158;14.604;2023-02-11T03:34:44;47.13;;;27.30;;
46288;SDS011;63105;46.158;14.604;2023-02-11T03:37:12;46.97;;;26.15;;
46288;SDS011;63105;46.158;14.604;2023-02-11T03:39:39;45.88;;;25.83;;
46288;SDS011;63105;46.158;14.604;2023-02-11T03:42:05;47.08;;;26.15;;
46288;SDS011;63105;46.158;14.604;2023-02-11T03:44:33;46.90;;;24.95;;
46288;SDS011;63105;46.158;14.604;2023-02-11T03:47:00;41.92;;;23.75;;
46288;SDS011;63105;46.158;14.604;2023-02-11T03:49:26;41.97;;;23.48;;
46288;SDS011;63105;46.158;14.604;2023-02-11T03:51:52;39.83;;;22.73;;
46288;SDS011;63105;46.158;14.604;2023-02-11T03:54:20;41.40;;;22.40;;
46288;SDS011;63105;46.158;14.604;2023-02-11T03:56:50;40.92;;;22.30;;
46288;SDS011;63105;46.158;14.604;2023-02-11T03:59:15;34.85;;;21.30;;
46288;SDS011;63105;46.158;14.604;2023-02-11T04:01:41;38.20;;;21.77;;
46288;SDS011;63105;46.158;14.604;2023-02-11T04:04:06;39.28;;;21.60;;
46288;SDS011;63105;46.158;14.604;2023-02-11T04:06:31;34.70;;;20.27;;
46288;SDS011;63105;46.158;14.604;2023-02-11T04:08:56;35.13;;;21.75;;
46288;SDS011;63105;46.158;14.604;2023-02-11T04:11:21;37.15;;;20.80;;
46288;SDS011;63105;46.158;14.604;2023-02-11T04:13:47;35.45;;;19.88;;
46288;SDS011;63105;46.158;14.604;2023-02-11T04:16:12;35.58;;;19.55;;
46288;SDS011;63105;46.158;14.604;2023-02-11T04:18:37;35.17;;;20.33;;
46288;SDS011;63105;46.158;14.604;2023-02-11T04:21:02;34.92;;;21.05;;
46288;SDS011;63105;46.158;14.604;2023-02-11T04:23:28;34.15;;;20.17;;
46288;SDS011;63105;46.158;14.604;2023-02-11T04:25:53;34.90;;;20.80;;
46288;SDS011;63105;46.158;14.604;2023-02-11T04:28:18;32.45;;;20.33;;
46288;SDS011;63105;46.158;14.604;2023-02-11T04:30:43;35.83;;;20.95;;
46288;SDS011;63105;46.158;14.604;2023-02-11T04:33:09;37.40;;;20.60;;
46288;SDS011;63105;46.158;14.604;2023-02-11T04:35:34;34.42;;;20.05;;
46288;SDS011;63105;46.158;14.604;2023-02-11T04:37:59;34.10;;;19.88;;
46288;SDS011;63105;46.158;14.604;2023-02-11T04:40:24;36.28;;;21.00;;
46288;SDS011;63105;46.158;14.604;2023-02-11T04:42:49;31.98;;;19.58;;
46288;SDS011;63105;46.158;14.604;2023-02-11T04:45:15;35.40;;;19.83;;
46288;SDS011;63105;46.158;14.604;2023-02-11T04:47:40;32.95;;;19.67;;
46288;SDS011;63105;46.158;14.604;2023-02-11T04:50:05;31.52;;;18.95;;
46288;SDS011;63105;46.158;14.604;2023-02-11T04:52:31;33.97;;;19.33;;
46288;SDS011;63105;46.158;14.604;2023-02-11T04:54:56;33.80;;;18.48;;
46288;SDS011;63105;46.158;14.604;2023-02-11T04:57:21;31.77;;;18.90;;
46288;SDS011;63105;46.158;14.604;2023-02-11T04:59:46;31.40;;;18.92;;
46288;SDS011;63105;46.158;14.604;2023-02-11T05:02:12;32.25;;;18.75;;
46288;SDS011;63105;46.158;14.604;2023-02-11T05:04:38;29.42;;;18.77;;
46288;SDS011;63105;46.158;14.604;2023-02-11T05:07:03;33.85;;;19.95;;
46288;SDS011;63105;46.158;14.604;2023-02-11T05:09:28;30.95;;;18.92;;
46288;SDS011;63105;46.158;14.604;2023-02-11T05:11:53;32.30;;;18.83;;
46288;SDS011;63105;46.158;14.604;2023-02-11T05:14:19;32.47;;;19.65;;
46288;SDS011;63105;46.158;14.604;2023-02-11T05:16:44;33.03;;;19.40;;
46288;SDS011;63105;46.158;14.604;2023-02-11T05:19:09;33.72;;;19.92;;
46288;SDS011;63105;46.158;14.604;2023-02-11T05:21:34;34.08;;;19.75;;
46288;SDS011;63105;46.158;14.604;2023-02-11T05:23:59;34.35;;;19.05;;
46288;SDS011;63105;46.158;14.604;2023-02-11T05:26:25;32.97;;;19.17;;
46288;SDS011;63105;46.158;14.604;2023-02-11T05:28:50;33.20;;;19.85;;
46288;SDS011;63105;46.158;14.604;2023-02-11T05:31:15;32.55;;;19.20;;
46288;SDS011;63105;46.158;14.604;2023-02-11T05:33:41;31.23;;;18.83;;
46288;SDS011;63105;46.158;14.604;2023-02-11T05:36:07;33.70;;;20.33;;
46288;SDS011;63105;46.158;14.604;2023-02-11T05:38:33;35.85;;;19.90;;
46288;SDS011;63105;46.158;14.604;2023-02-11T05:40:58;33.28;;;20.27;;
46288;SDS011;63105;46.158;14.604;2023-02-11T05:43:23;35.28;;;20.95;;
46288;SDS011;63105;46.158;14.604;2023-02-11T05:45:49;36.78;;;21.13;;
46288;SDS011;63105;46.158;14.604;2023-02-11T05:48:14;35.60;;;20.55;;
46288;SDS011;63105;46.158;14.604;2023-02-11T05:50:39;36.13;;;20.75;;
46288;SDS011;63105;46.158;14.604;2023-02-11T05:53:05;35.15;;;19.83;;
46288;SDS011;63105;46.158;14.604;2023-02-11T05:55:31;36.25;;;21.02;;
46288;SDS011;63105;46.158;14.604;2023-02-11T05:57:56;37.25;;;20.05;;
46288;SDS011;63105;46.158;14.604;2023-02-11T06:00:21;37.53;;;21.42;;
46288;SDS011;63105;46.158;14.604;2023-02-11T06:02:47;36.05;;;20.27;;
46288;SDS011;63105;46.158;14.604;2023-02-11T06:05:12;38.75;;;22.27;;
46288;SDS011;63105;46.158;14.604;2023-02-11T06:07:38;40.10;;;21.88;;
46288;SDS011;63105;46.158;14.604;2023-02-11T06:10:04;38.67;;;21.98;;
46288;SDS011;63105;46.158;14.604;2023-02-11T06:12:29;38.53;;;21.95;;
46288;SDS011;63105;46.158;14.604;2023-02-11T06:14:54;39.75;;;22.88;;
46288;SDS011;63105;46.158;14.604;2023-02-11T06:17:19;40.80;;;22.48;;
46288;SDS011;63105;46.158;14.604;2023-02-11T06:19:45;39.17;;;22.38;;
46288;SDS011;63105;46.158;14.604;2023-02-11T06:22:10;38.03;;;22.10;;
46288;SDS011;63105;46.158;14.604;2023-02-11T06:24:35;38.88;;;21.77;;
46288;SDS011;63105;46.158;14.604;2023-02-11T06:27:02;36.53;;;20.70;;
46288;SDS011;63105;46.158;14.604;2023-02-11T06:29:27;36.05;;;20.25;;
46288;SDS011;63105;46.158;14.604;2023-02-11T06:31:53;35.72;;;20.60;;
46288;SDS011;63105;46.158;14.604;2023-02-11T06:34:18;39.40;;;22.48;;
46288;SDS011;63105;46.158;14.604;2023-02-11T06:36:43;34.13;;;20.77;;
46288;SDS011;63105;46.158;14.604;2023-02-11T06:39:09;37.90;;;21.55;;
46288;SDS011;63105;46.158;14.604;2023-02-11T06:41:35;38.35;;;22.48;;
46288;SDS011;63105;46.158;14.604;2023-02-11T06:44:00;36.38;;;21.65;;
46288;SDS011;63105;46.158;14.604;2023-02-11T06:46:25;39.33;;;22.95;;
46288;SDS011;63105;46.158;14.604;2023-02-11T06:48:51;38.40;;;22.17;;
46288;SDS011;63105;46.158;14.604;2023-02-11T06:51:16;37.90;;;23.42;;
46288;SDS011;63105;46.158;14.604;2023-02-11T06:53:42;39.22;;;23.70;;
46288;SDS011;63105;46.158;14.604;2023-02-11T06:56:09;45.10;;;24.00;;
46288;SDS011;63105;46.158;14.604;2023-02-11T06:58:35;44.85;;;26.67;;
46288;SDS011;63105;46.158;14.604;2023-02-11T07:01:07;43.22;;;25.95;;
46288;SDS011;63105;46.158;14.604;2023-02-11T07:03:37;45.97;;;26.55;;
46288;SDS011;63105;46.158;14.604;2023-02-11T07:06:02;45.28;;;28.27;;
46288;SDS011;63105;46.158;14.604;2023-02-11T07:08:29;51.38;;;29.33;;
46288;SDS011;63105;46.158;14.604;2023-02-11T07:10:54;46.88;;;28.60;;
46288;SDS011;63105;46.158;14.604;2023-02-11T07:13:20;48.65;;;30.10;;
46288;SDS011;63105;46.158;14.604;2023-02-11T07:15:45;47.67;;;29.25;;
46288;SDS011;63105;46.158;14.604;2023-02-11T07:18:10;52.50;;;29.92;;
46288;SDS011;63105;46.158;14.604;2023-02-11T07:20:36;49.88;;;30.00;;
46288;SDS011;63105;46.158;14.604;2023-02-11T07:23:02;51.83;;;30.38;;
46288;SDS011;63105;46.158;14.604;2023-02-11T07:25:27;48.63;;;31.52;;
46288;SDS011;63105;46.158;14.604;2023-02-11T07:27:53;47.90;;;29.35;;
46288;SDS011;63105;46.158;14.604;2023-02-11T07:30:18;51.15;;;31.00;;
46288;SDS011;63105;46.158;14.604;2023-02-11T07:32:43;50.28;;;28.88;;
46288;SDS011;63105;46.158;14.604;2023-02-11T07:35:08;49.75;;;28.98;;
46288;SDS011;63105;46.158;14.604;2023-02-11T07:37:34;48.38;;;29.77;;
46288;SDS011;63105;46.158;14.604;2023-02-11T07:39:59;48.72;;;28.40;;
46288;SDS011;63105;46.158;14.604;2023-02-11T07:42:24;44.38;;;28.52;;
46288;SDS011;63105;46.158;14.604;2023-02-11T07:44:50;53.53;;;29.85;;
46288;SDS011;63105;46.158;14.604;2023-02-11T07:47:15;46.50;;;27.60;;
46288;SDS011;63105;46.158;14.604;2023-02-11T07:49:40;49.25;;;29.70;;
46288;SDS011;63105;46.158;14.604;2023-02-11T07:52:05;48.47;;;29.95;;
46288;SDS011;63105;46.158;14.604;2023-02-11T07:54:30;49.25;;;30.00;;
46288;SDS011;63105;46.158;14.604;2023-02-11T07:56:56;50.63;;;29.75;;
46288;SDS011;63105;46.158;14.604;2023-02-11T07:59:21;52.28;;;30.73;;
46288;SDS011;63105;46.158;14.604;2023-02-11T08:01:49;54.33;;;31.02;;
46288;SDS011;63105;46.158;14.604;2023-02-11T08:04:15;52.80;;;30.55;;
46288;SDS011;63105;46.158;14.604;2023-02-11T08:06:41;46.17;;;29.02;;
46288;SDS011;63105;46.158;14.604;2023-02-11T08:09:08;48.17;;;29.20;;
46288;SDS011;63105;46.158;14.604;2023-02-11T08:11:33;48.65;;;29.73;;
46288;SDS011;63105;46.158;14.604;2023-02-11T08:13:59;47.67;;;29.35;;
46288;SDS011;63105;46.158;14.604;2023-02-11T08:16:25;44.83;;;27.17;;
46288;SDS011;63105;46.158;14.604;2023-02-11T08:18:51;45.53;;;28.88;;
46288;SDS011;63105;46.158;14.604;2023-02-11T08:21:17;45.70;;;28.00;;
46288;SDS011;63105;46.158;14.604;2023-02-11T08:23:43;46.00;;;27.98;;
46288;SDS011;63105;46.158;14.604;2023-02-11T08:26:09;46.20;;;28.33;;
46288;SDS011;63105;46.158;14.604;2023-02-11T08:28:39;48.22;;;28.88;;
46288;SDS011;63105;46.158;14.604;2023-02-11T08:31:08;47.25;;;28.10;;
46288;SDS011;63105;46.158;14.604;2023-02-11T08:33:33;48.75;;;30.67;;
46288;SDS011;63105;46.158;14.604;2023-02-11T08:35:59;49.15;;;31.42;;
46288;SDS011;63105;46.158;14.604;2023-02-11T08:38:24;48.22;;;30.92;;
46288;SDS011;63105;46.158;14.604;2023-02-11T08:40:49;52.28;;;31.73;;
46288;SDS011;63105;46.158;14.604;2023-02-11T08:43:14;49.60;;;31.27;;
46288;SDS011;63105;46.158;14.604;2023-02-11T08:45:40;44.85;;;27.95;;
46288;SDS011;63105;46.158;14.604;2023-02-11T08:48:05;50.38;;;29.23;;
46288;SDS011;63105;46.158;14.604;2023-02-11T08:50:30;48.45;;;29.90;;
46288;SDS011;63105;46.158;14.604;2023-02-11T08:52:56;46.88;;;29.42;;
46288;SDS011;63105;46.158;14.604;2023-02-11T08:55:21;45.30;;;28.48;;
46288;SDS011;63105;46.158;14.604;2023-02-11T08:57:46;49.05;;;30.50;;
46288;SDS011;63105;46.158;14.604;2023-02-11T09:00:12;46.25;;;29.00;;
46288;SDS011;63105;46.158;14.604;2023-02-11T09:02:37;48.92;;;29.50;;
46288;SDS011;63105;46.158;14.604;2023-02-11T09:05:02;52.53;;;32.60;;
46288;SDS011;63105;46.158;14.604;2023-02-11T09:07:28;49.60;;;30.52;;
46288;SDS011;63105;46.158;14.604;2023-02-11T09:09:53;48.47;;;30.65;;
46288;SDS011;63105;46.158;14.604;2023-02-11T09:12:18;48.08;;;30.58;;
46288;SDS011;63105;46.158;14.604;2023-02-11T09:14:43;63.85;;;40.13;;
46288;SDS011;63105;46.158;14.604;2023-02-11T09:17:08;47.22;;;30.40;;
46288;SDS011;63105;46.158;14.604;2023-02-11T09:19:34;51.60;;;33.17;;
46288;SDS011;63105;46.158;14.604;2023-02-11T09:22:00;50.58;;;31.15;;
46288;SDS011;63105;46.158;14.604;2023-02-11T09:24:25;53.40;;;34.30;;
46288;SDS011;63105;46.158;14.604;2023-02-11T09:26:50;47.55;;;30.92;;
46288;SDS011;63105;46.158;14.604;2023-02-11T09:29:15;53.78;;;33.63;;
46288;SDS011;63105;46.158;14.604;2023-02-11T09:31:41;61.40;;;39.33;;
46288;SDS011;63105;46.158;14.604;2023-02-11T09:34:06;62.35;;;41.33;;
46288;SDS011;63105;46.158;14.604;2023-02-11T09:36:33;47.05;;;30.40;;
46288;SDS011;63105;46.158;14.604;2023-02-11T09:38:59;49.72;;;31.17;;
46288;SDS011;63105;46.158;14.604;2023-02-11T09:43:54;51.03;;;30.65;;
46288;SDS011;63105;46.158;14.604;2023-02-11T09:46:20;47.00;;;28.92;;
46288;SDS011;63105;46.158;14.604;2023-02-11T09:48:46;44.72;;;27.88;;
46288;SDS011;63105;46.158;14.604;2023-02-11T09:51:15;43.28;;;28.40;;
46288;SDS011;63105;46.158;14.604;2023-02-11T09:53:43;43.05;;;27.50;;
46288;SDS011;63105;46.158;14.604;2023-02-11T09:56:09;45.20;;;29.75;;
46288;SDS011;63105;46.158;14.604;2023-02-11T09:58:36;51.10;;;31.15;;
46288;SDS011;63105;46.158;14.604;2023-02-11T10:06:27;39.50;;;23.05;;
46288;SDS011;63105;46.158;14.604;2023-02-11T10:17:14;40.53;;;23.98;;
46288;SDS011;63105;46.158;14.604;2023-02-11T10:22:00;31.10;;;19.85;;
46288;SDS011;63105;46.158;14.604;2023-02-11T10:24:27;35.13;;;22.65;;
46288;SDS011;63105;46.158;14.604;2023-02-11T10:26:53;32.67;;;22.10;;
46288;SDS011;63105;46.158;14.604;2023-02-11T10:29:37;32.55;;;21.02;;
46288;SDS011;63105;46.158;14.604;2023-02-11T10:32:06;35.15;;;23.75;;
46288;SDS011;63105;46.158;14.604;2023-02-11T10:34:37;32.30;;;20.88;;
46288;SDS011;63105;46.158;14.604;2023-02-11T10:37:04;37.22;;;23.25;;
46288;SDS011;63105;46.158;14.604;2023-02-11T10:39:31;36.22;;;24.08;;
46288;SDS011;63105;46.158;14.604;2023-02-11T10:41:58;33.08;;;21.15;;
46288;SDS011;63105;46.158;14.604;2023-02-11T10:47:25;33.22;;;20.58;;
46288;SDS011;63105;46.158;14.604;2023-02-11T10:49:48;27.70;;;18.27;;
46288;SDS011;63105;46.158;14.604;2023-02-11T10:54:39;31.42;;;20.05;;
46288;SDS011;63105;46.158;14.604;2023-02-11T10:57:04;40.47;;;23.17;;
46288;SDS011;63105;46.158;14.604;2023-02-11T10:59:32;31.88;;;20.23;;
46288;SDS011;63105;46.158;14.604;2023-02-11T11:01:59;29.48;;;19.38;;
46288;SDS011;63105;46.158;14.604;2023-02-11T11:06:54;31.83;;;20.08;;
46288;SDS011;63105;46.158;14.604;2023-02-11T11:09:26;35.38;;;21.40;;
46288;SDS011;63105;46.158;14.604;2023-02-11T11:11:52;38.17;;;23.75;;
46288;SDS011;63105;46.158;14.604;2023-02-11T11:14:18;30.30;;;19.33;;
46288;SDS011;63105;46.158;14.604;2023-02-11T11:16:51;28.42;;;18.33;;
46288;SDS011;63105;46.158;14.604;2023-02-11T11:19:23;30.35;;;19.30;;
46288;SDS011;63105;46.158;14.604;2023-02-11T11:21:49;31.05;;;20.38;;
46288;SDS011;63105;46.158;14.604;2023-02-11T11:26:41;31.83;;;19.80;;
46288;SDS011;63105;46.158;14.604;2023-02-11T11:29:08;32.40;;;20.30;;
46288;SDS011;63105;46.158;14.604;2023-02-11T11:31:37;31.20;;;19.63;;
46288;SDS011;63105;46.158;14.604;2023-02-11T11:36:50;34.75;;;20.50;;
46288;SDS011;63105;46.158;14.604;2023-02-11T11:39:20;32.83;;;19.92;;
46288;SDS011;63105;46.158;14.604;2023-02-11T11:41:48;30.58;;;20.05;;
46288;SDS011;63105;46.158;14.604;2023-02-11T11:44:22;30.85;;;19.20;;
46288;SDS011;63105;46.158;14.604;2023-02-11T11:46:48;31.85;;;20.42;;
46288;SDS011;63105;46.158;14.604;2023-02-11T11:49:16;30.20;;;19.95;;
46288;SDS011;63105;46.158;14.604;2023-02-11T11:51:49;29.40;;;19.27;;
46288;SDS011;63105;46.158;14.604;2023-02-11T11:54:15;30.65;;;19.05;;
46288;SDS011;63105;46.158;14.604;2023-02-11T11:56:46;35.97;;;22.13;;
46288;SDS011;63105;46.158;14.604;2023-02-11T11:59:14;30.83;;;20.52;;
46288;SDS011;63105;46.158;14.604;2023-02-11T12:01:44;28.98;;;18.73;;
46288;SDS011;63105;46.158;14.604;2023-02-11T12:20:06;35.53;;;23.27;;
46288;SDS011;63105;46.158;14.604;2023-02-11T12:35:22;34.10;;;22.17;;
46288;SDS011;63105;46.158;14.604;2023-02-11T12:38:09;33.72;;;23.67;;
46288;SDS011;63105;46.158;14.604;2023-02-11T12:43:24;34.08;;;21.92;;
46288;SDS011;63105;46.158;14.604;2023-02-11T12:50:56;49.72;;;31.20;;
46288;SDS011;63105;46.158;14.604;2023-02-11T12:53:34;40.72;;;26.45;;
46288;SDS011;63105;46.158;14.604;2023-02-11T12:56:08;43.10;;;27.65;;
46288;SDS011;63105;46.158;14.604;2023-02-11T12:58:36;44.75;;;28.48;;
46288;SDS011;63105;46.158;14.604;2023-02-11T13:01:04;53.25;;;34.10;;
46288;SDS011;63105;46.158;14.604;2023-02-11T13:03:34;41.40;;;27.33;;
46288;SDS011;63105;46.158;14.604;2023-02-11T13:06:03;39.75;;;25.80;;
46288;SDS011;63105;46.158;14.604;2023-02-11T13:08:30;56.60;;;37.60;;
46288;SDS011;63105;46.158;14.604;2023-02-11T13:10:58;41.70;;;27.38;;
46288;SDS011;63105;46.158;14.604;2023-02-11T13:13:30;50.15;;;31.95;;
46288;SDS011;63105;46.158;14.604;2023-02-11T13:16:01;44.78;;;28.75;;
46288;SDS011;63105;46.158;14.604;2023-02-11T13:18:51;44.25;;;28.05;;
46288;SDS011;63105;46.158;14.604;2023-02-11T13:24:08;43.67;;;28.75;;
46288;SDS011;63105;46.158;14.604;2023-02-11T13:26:40;39.67;;;25.73;;
46288;SDS011;63105;46.158;14.604;2023-02-11T13:31:54;39.60;;;25.70;;
46288;SDS011;63105;46.158;14.604;2023-02-11T13:34:23;38.30;;;25.00;;
46288;SDS011;63105;46.158;14.604;2023-02-11T13:36:55;42.42;;;27.08;;
46288;SDS011;63105;46.158;14.604;2023-02-11T13:39:21;38.50;;;25.58;;
46288;SDS011;63105;46.158;14.604;2023-02-11T13:41:46;41.00;;;27.40;;
46288;SDS011;63105;46.158;14.604;2023-02-11T13:47:16;39.85;;;27.58;;
46288;SDS011;63105;46.158;14.604;2023-02-11T13:52:00;37.65;;;24.15;;
46288;SDS011;63105;46.158;14.604;2023-02-11T13:54:28;35.67;;;22.98;;
46288;SDS011;63105;46.158;14.604;2023-02-11T14:10:51;45.97;;;30.52;;
46288;SDS011;63105;46.158;14.604;2023-02-11T14:13:21;39.30;;;26.95;;
46288;SDS011;63105;46.158;14.604;2023-02-11T14:15:46;41.90;;;27.38;;
46288;SDS011;63105;46.158;14.604;2023-02-11T14:23:40;41.08;;;26.70;;
46288;SDS011;63105;46.158;14.604;2023-02-11T14:28:43;48.80;;;30.45;;
46288;SDS011;63105;46.158;14.604;2023-02-11T14:31:21;55.05;;;38.55;;
46288;SDS011;63105;46.158;14.604;2023-02-11T14:43:47;75.28;;;47.35;;
46288;SDS011;63105;46.158;14.604;2023-02-11T14:46:14;63.60;;;39.97;;
46288;SDS011;63105;46.158;14.604;2023-02-11T14:48:42;49.83;;;34.22;;
46288;SDS011;63105;46.158;14.604;2023-02-11T14:51:10;53.28;;;36.03;;
46288;SDS011;63105;46.158;14.604;2023-02-11T14:53:38;60.22;;;38.65;;
46288;SDS011;63105;46.158;14.604;2023-02-11T14:56:14;55.30;;;35.45;;
46288;SDS011;63105;46.158;14.604;2023-02-11T14:58:40;50.25;;;32.70;;
46288;SDS011;63105;46.158;14.604;2023-02-11T15:03:48;43.00;;;28.67;;
46288;SDS011;63105;46.158;14.604;2023-02-11T15:06:17;42.85;;;28.15;;
46288;SDS011;63105;46.158;14.604;2023-02-11T15:09:27;52.28;;;37.15;;
46288;SDS011;63105;46.158;14.604;2023-02-11T15:11:37;48.88;;;32.15;;
46288;SDS011;63105;46.158;14.604;2023-02-11T15:14:10;44.47;;;29.80;;
46288;SDS011;63105;46.158;14.604;2023-02-11T15:16:43;56.88;;;39.10;;
46288;SDS011;63105;46.158;14.604;2023-02-11T15:22:01;46.78;;;32.60;;
46288;SDS011;63105;46.158;14.604;2023-02-11T15:24:29;52.20;;;35.47;;
46288;SDS011;63105;46.158;14.604;2023-02-11T15:29:24;57.88;;;36.78;;
46288;SDS011;63105;46.158;14.604;2023-02-11T15:32:09;56.80;;;36.38;;
46288;SDS011;63105;46.158;14.604;2023-02-11T15:37:03;46.30;;;31.93;;
46288;SDS011;63105;46.158;14.604;2023-02-11T15:39:33;46.40;;;31.13;;
46288;SDS011;63105;46.158;14.604;2023-02-11T15:44:41;59.58;;;37.13;;
46288;SDS011;63105;46.158;14.604;2023-02-11T15:47:15;49.15;;;31.92;;
46288;SDS011;63105;46.158;14.604;2023-02-11T15:49:44;54.97;;;35.65;;
46288;SDS011;63105;46.158;14.604;2023-02-11T15:52:11;54.22;;;33.67;;
46288;SDS011;63105;46.158;14.604;2023-02-11T15:54:36;49.10;;;31.08;;
46288;SDS011;63105;46.158;14.604;2023-02-11T15:57:02;46.33;;;31.08;;
46288;SDS011;63105;46.158;14.604;2023-02-11T15:59:30;47.83;;;32.95;;
46288;SDS011;63105;46.158;14.604;2023-02-11T16:01:56;55.33;;;34.83;;
46288;SDS011;63105;46.158;14.604;2023-02-11T16:04:24;52.08;;;34.45;;
46288;SDS011;63105;46.158;14.604;2023-02-11T16:06:50;53.88;;;35.33;;
46288;SDS011;63105;46.158;14.604;2023-02-11T16:11:55;51.33;;;33.15;;
46288;SDS011;63105;46.158;14.604;2023-02-11T16:17:04;56.70;;;37.15;;
46288;SDS011;63105;46.158;14.604;2023-02-11T16:19:31;58.70;;;36.30;;
46288;SDS011;63105;46.158;14.604;2023-02-11T16:21:57;53.92;;;34.75;;
46288;SDS011;63105;46.158;14.604;2023-02-11T16:24:24;45.80;;;30.38;;
46288;SDS011;63105;46.158;14.604;2023-02-11T16:26:56;45.17;;;29.42;;
46288;SDS011;63105;46.158;14.604;2023-02-11T16:29:23;60.15;;;36.92;;
46288;SDS011;63105;46.158;14.604;2023-02-11T16:31:50;46.15;;;28.55;;
46288;SDS011;63105;46.158;14.604;2023-02-11T16:36:41;43.65;;;28.67;;
46288;SDS011;63105;46.158;14.604;2023-02-11T16:39:07;94.22;;;51.03;;
46288;SDS011;63105;46.158;14.604;2023-02-11T16:41:32;51.97;;;33.42;;
46288;SDS011;63105;46.158;14.604;2023-02-11T16:43:57;48.88;;;30.75;;
46288;SDS011;63105;46.158;14.604;2023-02-11T16:46:23;50.42;;;31.65;;
46288;SDS011;63105;46.158;14.604;2023-02-11T16:48:48;64.90;;;40.47;;
46288;SDS011;63105;46.158;14.604;2023-02-11T16:51:13;68.90;;;41.42;;